Time;durP1;ratioP1;P1;durP2;ratioP2;P2;SDS_P1;SDS_P2;PMS_P1;PMS_P2;Temp;Humidity;BMP_temperature;BMP_pressure;BME280_temperature;BME280_humidity;BME280_pressure;Samples;Min_cycle;Max_cycle;Signal;HPM_P1;HPM_P2
2022/12/13 00:00:41;;;;;;;6.00;5.50;;;4.40;99.90;;;;;;5099512;28;20035;-77
2022/12/13 00:03:07;;;;;;;7.63;6.60;;;4.40;99.90;;;;;;5077855;28;20097;-79
2022/12/13 00:05:33;;;;;;;7.13;6.43;;;4.50;99.90;;;;;;5099027;28;20492;-78
2022/12/13 00:08:00;;;;;;;8.48;5.72;;;4.50;99.90;;;;;;5096470;28;20384;-80
2022/12/13 00:10:27;;;;;;;5.95;5.38;;;4.50;99.90;;;;;;5092688;28;20024;-80
2022/12/13 00:12:53;;;;;;;6.57;5.97;;;4.50;99.90;;;;;;5091619;28;20028;-77
2022/12/13 00:15:19;;;;;;;6.80;6.00;;;4.50;99.90;;;;;;5096383;28;20027;-81
2022/12/13 00:17:44;;;;;;;7.32;5.53;;;4.40;99.90;;;;;;5092195;28;20523;-82
2022/12/13 00:20:26;;;;;;;5.85;5.30;;;4.40;99.90;;;;;;5077296;28;20024;-78
2022/12/13 00:22:52;;;;;;;6.25;5.65;;;4.40;99.90;;;;;;5093561;28;20370;-79
2022/12/13 00:25:20;;;;;;;6.43;5.78;;;4.40;99.90;;;;;;5095802;28;20054;-78
2022/12/13 00:27:46;;;;;;;7.22;5.85;;;4.50;99.90;;;;;;5077089;28;20027;-78
2022/12/13 00:30:12;;;;;;;5.25;4.78;;;4.50;99.90;;;;;;5098574;28;20051;-77
2022/12/13 00:32:38;;;;;;;6.05;5.45;;;4.50;99.90;;;;;;5096351;28;20029;-78
2022/12/13 00:35:04;;;;;;;6.68;5.90;;;4.60;99.90;;;;;;5098037;28;20023;-78
2022/12/13 00:37:29;;;;;;;6.55;5.88;;;4.50;99.90;;;;;;5076050;28;20036;-79
2022/12/13 00:39:55;;;;;;;5.30;4.85;;;4.50;99.90;;;;;;5077508;28;20047;-78
2022/12/13 00:42:21;;;;;;;5.68;5.10;;;4.60;99.90;;;;;;5076413;28;20060;-77
2022/12/13 00:44:47;;;;;;;5.40;4.90;;;4.60;99.90;;;;;;5073332;28;20028;-79
2022/12/13 00:47:13;;;;;;;5.68;5.10;;;4.60;99.90;;;;;;5075971;28;20020;-78
2022/12/13 00:49:39;;;;;;;5.85;5.38;;;4.60;99.90;;;;;;5085335;28;20032;-78
2022/12/13 00:52:05;;;;;;;5.60;5.10;;;4.60;99.90;;;;;;5092995;28;20016;-80
2022/12/13 00:54:30;;;;;;;5.47;5.07;;;4.60;99.90;;;;;;5094033;28;20373;-78
2022/12/13 00:56:56;;;;;;;5.47;5.05;;;4.70;99.90;;;;;;5096899;28;20065;-80
2022/12/13 00:59:22;;;;;;;5.65;5.15;;;4.70;99.90;;;;;;5093185;28;20028;-80
2022/12/13 01:01:48;;;;;;;6.03;5.30;;;4.70;99.90;;;;;;5079588;28;20399;-82
2022/12/13 01:04:14;;;;;;;4.97;4.57;;;4.60;99.90;;;;;;5092820;28;20066;-79
2022/12/13 01:06:43;;;;;;;5.80;5.22;;;4.60;99.90;;;;;;5097925;28;20017;-80
2022/12/13 01:09:20;;;;;;;5.60;5.10;;;4.50;99.90;;;;;;5091856;28;20028;-81
2022/12/13 01:11:46;;;;;;;6.07;5.47;;;4.50;99.90;;;;;;5074994;28;20022;-79
2022/12/13 01:14:13;;;;;;;6.28;5.68;;;4.40;99.90;;;;;;5062296;28;20029;-79
2022/12/13 01:16:38;;;;;;;6.40;5.55;;;4.40;99.90;;;;;;5079730;28;20479;-78
2022/12/13 01:19:05;;;;;;;6.28;5.72;;;4.40;99.90;;;;;;5091441;28;20036;-81
2022/12/13 01:21:30;;;;;;;6.07;5.57;;;4.40;99.90;;;;;;5079274;28;20504;-78
2022/12/13 01:24:02;;;;;;;6.63;6.03;;;4.40;99.90;;;;;;5092187;28;20144;-82
2022/12/13 01:26:28;;;;;;;5.68;5.18;;;4.30;99.90;;;;;;5079585;28;20028;-80
2022/12/13 01:28:53;;;;;;;5.97;5.47;;;4.30;99.90;;;;;;5078875;28;20028;-79
2022/12/13 01:31:20;;;;;;;6.10;5.28;;;4.30;99.90;;;;;;5079387;28;20099;-77
2022/12/13 01:33:47;;;;;;;6.20;5.60;;;4.40;99.90;;;;;;5077150;28;20035;-78
2022/12/13 01:36:15;;;;;;;7.63;6.60;;;4.40;99.90;;;;;;5097502;28;20032;-78
2022/12/13 01:38:42;;;;;;;6.70;6.00;;;4.40;99.90;;;;;;5093631;28;20020;-79
2022/12/13 01:41:13;;;;;;;6.68;6.07;;;4.40;99.90;;;;;;5097703;28;20507;-80
2022/12/13 01:43:42;;;;;;;6.72;6.10;;;4.30;99.90;;;;;;5088205;28;20024;-79
2022/12/13 01:46:09;;;;;;;6.45;5.90;;;4.30;99.90;;;;;;5079216;28;20032;-78
2022/12/13 01:49:00;;;;;;;6.47;5.88;;;4.30;99.90;;;;;;5072448;28;21370;-79
2022/12/13 01:51:54;;;;;;;6.50;5.82;;;4.30;99.90;;;;;;5080430;28;20053;-78
2022/12/13 01:54:25;;;;;;;7.10;6.50;;;4.30;99.90;;;;;;5091574;28;20480;-79
2022/12/13 01:56:54;;;;;;;6.53;5.93;;;4.40;99.90;;;;;;5096311;28;20103;-79
2022/12/13 01:59:21;;;;;;;7.00;6.15;;;4.30;99.90;;;;;;5091797;28;20046;-79
2022/12/13 02:01:49;;;;;;;7.18;6.47;;;4.40;99.90;;;;;;5097354;28;20028;-79
2022/12/13 02:04:38;;;;;;;7.55;6.75;;;4.40;99.90;;;;;;5073556;28;20024;-79
2022/12/13 02:07:05;;;;;;;6.03;5.53;;;4.40;99.90;;;;;;5055676;28;20043;-80
2022/12/13 02:09:34;;;;;;;6.55;6.05;;;4.40;99.90;;;;;;5077498;28;20107;-78
2022/12/13 02:12:01;;;;;;;6.70;6.10;;;4.50;99.90;;;;;;5090526;28;20022;-80
2022/12/13 02:14:27;;;;;;;5.68;5.18;;;4.50;99.90;;;;;;5091947;28;20021;-80
2022/12/13 02:17:41;;;;;;;6.72;6.13;;;4.50;99.90;;;;;;5077840;28;20077;-78
2022/12/13 02:20:10;;;;;;;6.15;5.55;;;4.50;99.90;;;;;;5021958;28;20030;-78
2022/12/13 02:22:57;;;;;;;6.53;5.82;;;4.50;99.90;;;;;;5075419;28;20032;-80
2022/12/13 02:25:47;;;;;;;6.57;5.97;;;4.40;99.90;;;;;;5064653;28;20048;-80
2022/12/13 02:28:32;;;;;;;5.75;5.25;;;4.40;99.90;;;;;;5071707;28;20024;-79
2022/12/13 02:31:28;;;;;;;4.43;4.05;;;4.40;99.90;;;;;;5075298;28;20404;-78
2022/12/13 02:34:05;;;;;;;5.97;5.47;;;4.40;99.90;;;;;;5061733;28;20047;-81
2022/12/13 02:37:03;;;;;;;6.10;5.50;;;4.40;99.90;;;;;;5072182;28;20017;-79
2022/12/13 02:39:37;;;;;;;6.88;5.55;;;4.40;99.90;;;;;;5072012;28;20413;-80
2022/12/13 02:42:26;;;;;;;6.30;5.72;;;4.40;99.90;;;;;;5073026;28;20358;-79
2022/12/13 02:45:14;;;;;;;5.85;5.38;;;4.40;99.90;;;;;;5071832;28;20033;-80
2022/12/13 02:47:44;;;;;;;7.80;6.03;;;4.40;99.90;;;;;;5069722;28;20029;-80
2022/12/13 02:50:11;;;;;;;;;;;4.40;99.90;;;;;;5066972;28;20524;-80
2022/12/13 02:52:41;;;;;;;6.28;5.68;;;4.30;99.90;;;;;;5068426;28;19954;-80
2022/12/13 02:55:12;;;;;;;8.30;5.93;;;4.30;99.90;;;;;;5074929;28;20036;-79
2022/12/13 02:57:41;;;;;;;6.38;5.82;;;4.30;99.90;;;;;;5072162;28;20057;-79
2022/12/13 03:00:14;;;;;;;5.72;5.22;;;4.30;99.90;;;;;;5075216;28;20051;-80
2022/12/13 03:02:50;;;;;;;6.53;5.90;;;4.30;99.90;;;;;;5064345;28;20032;-80
2022/12/13 03:08:30;;;;;;;6.13;5.60;;;4.30;99.90;;;;;;5074238;28;20027;-79
2022/12/13 03:11:03;;;;;;;6.95;6.35;;;4.40;99.90;;;;;;5073570;28;20025;-80
2022/12/13 03:13:53;;;;;;;6.55;5.97;;;4.40;99.90;;;;;;5075036;28;20031;-79
2022/12/13 03:16:35;;;;;;;5.93;5.43;;;4.40;99.90;;;;;;5077552;28;20036;-79
2022/12/13 03:19:04;;;;;;;6.95;6.25;;;4.30;99.90;;;;;;5074692;28;20059;-80
2022/12/13 03:21:40;;;;;;;7.05;6.45;;;4.30;99.90;;;;;;5077584;28;20107;-80
2022/12/13 03:24:06;;;;;;;6.90;6.28;;;4.20;99.90;;;;;;5079356;28;20052;-80
2022/12/13 03:26:33;;;;;;;7.00;6.03;;;4.10;99.90;;;;;;5098832;28;20103;-80
2022/12/13 03:28:59;;;;;;;7.00;6.40;;;4.10;99.90;;;;;;5080936;28;20032;-81
2022/12/13 03:31:24;;;;;;;9.70;6.35;;;4.00;99.90;;;;;;5098884;28;20020;-79
2022/12/13 03:33:50;;;;;;;7.05;6.40;;;3.90;99.90;;;;;;5096779;28;20430;-80
2022/12/13 03:36:17;;;;;;;6.43;5.88;;;3.90;99.90;;;;;;5081732;28;20032;-81
2022/12/13 03:38:45;;;;;;;6.75;6.15;;;3.90;99.90;;;;;;5078382;28;20035;-80
2022/12/13 03:41:17;;;;;;;7.18;6.57;;;3.90;99.90;;;;;;5100029;28;20047;-79
2022/12/13 03:43:44;;;;;;;8.07;7.28;;;3.90;99.90;;;;;;5077444;28;20024;-80
2022/12/13 03:46:10;;;;;;;7.70;7.00;;;4.00;99.90;;;;;;5081578;28;20122;-82
2022/12/13 03:48:36;;;;;;;7.85;7.05;;;4.10;99.90;;;;;;5074393;28;20112;-80
2022/12/13 03:51:02;;;;;;;8.05;7.32;;;4.20;99.90;;;;;;5088516;28;20392;-80
2022/12/13 03:53:29;;;;;;;8.30;7.60;;;4.20;99.90;;;;;;5092847;28;20063;-80
2022/12/13 03:55:54;;;;;;;9.18;7.22;;;4.30;99.90;;;;;;5081558;28;20024;-80
2022/12/13 03:58:20;;;;;;;17.92;7.82;;;4.40;99.90;;;;;;5092734;28;20542;-80
2022/12/13 04:00:46;;;;;;;7.10;6.50;;;4.40;99.90;;;;;;5080911;28;20069;-79
2022/12/13 04:03:12;;;;;;;7.65;6.95;;;4.60;99.90;;;;;;5093032;28;20060;-80
2022/12/13 04:05:38;;;;;;;7.55;6.85;;;4.60;99.90;;;;;;5098699;28;20016;-80
2022/12/13 04:08:05;;;;;;;7.82;7.13;;;4.60;99.90;;;;;;5092978;28;20024;-80
2022/12/13 04:10:31;;;;;;;7.82;7.13;;;4.50;99.90;;;;;;5096840;28;20028;-80
2022/12/13 04:15:47;;;;;;;7.03;6.43;;;4.60;99.90;;;;;;5097261;28;20051;-81
2022/12/13 04:18:18;;;;;;;7.50;6.80;;;4.70;99.90;;;;;;5080070;28;20024;-81
2022/12/13 04:20:45;;;;;;;;;;;4.60;99.90;;;;;;5081526;28;20050;-80
2022/12/13 04:23:11;;;;;;;7.95;7.10;;;4.70;99.90;;;;;;5093904;28;19989;-80
2022/12/13 04:25:38;;;;;;;7.28;6.57;;;4.60;99.90;;;;;;5096326;28;20076;-81
2022/12/13 04:28:04;;;;;;;8.40;7.40;;;4.60;99.90;;;;;;5095414;28;20032;-82
2022/12/13 04:30:30;;;;;;;7.60;6.93;;;4.60;99.90;;;;;;5097650;28;20025;-82
2022/12/13 04:32:56;;;;;;;7.57;6.78;;;4.60;99.90;;;;;;5077883;28;20047;-81
2022/12/13 04:35:22;;;;;;;7.38;6.68;;;4.50;99.90;;;;;;5090452;28;20484;-81
2022/12/13 04:37:48;;;;;;;7.70;6.90;;;4.40;99.90;;;;;;5074904;28;20025;-81
2022/12/13 04:40:14;;;;;;;7.75;6.95;;;4.40;99.90;;;;;;5096769;28;20459;-81
2022/12/13 04:42:40;;;;;;;7.55;6.85;;;4.30;99.90;;;;;;5094234;28;20020;-81
2022/12/13 04:45:06;;;;;;;7.53;6.82;;;4.30;99.90;;;;;;5094520;28;20028;-82
2022/12/13 04:47:32;;;;;;;8.88;7.80;;;4.30;99.90;;;;;;5093588;28;20028;-82
2022/12/13 04:49:58;;;;;;;8.40;6.95;;;4.30;99.90;;;;;;5084126;28;20562;-82
2022/12/13 04:52:24;;;;;;;9.43;8.50;;;4.20;99.90;;;;;;5095770;28;20397;-81
2022/12/13 04:54:50;;;;;;;7.70;7.03;;;4.20;99.90;;;;;;5069268;28;20489;-80
2022/12/13 04:57:16;;;;;;;7.93;6.78;;;4.20;99.90;;;;;;5094380;28;20106;-82
2022/12/13 04:59:45;;;;;;;8.85;7.97;;;4.20;99.90;;;;;;5076930;28;20392;-81
2022/12/13 05:02:11;;;;;;;8.10;7.03;;;4.10;99.90;;;;;;5078143;28;20036;-81
2022/12/13 05:04:37;;;;;;;7.40;6.70;;;4.00;99.90;;;;;;5094423;28;20019;-81
2022/12/13 05:07:03;;;;;;;7.07;6.45;;;4.00;99.90;;;;;;5097053;28;20028;-81
2022/12/13 05:09:30;;;;;;;9.63;6.82;;;4.00;99.90;;;;;;5094368;28;20031;-81
2022/12/13 05:11:56;;;;;;;8.07;7.35;;;3.90;99.90;;;;;;5092270;28;20016;-82
2022/12/13 05:14:22;;;;;;;8.05;7.25;;;3.80;99.90;;;;;;5075305;28;20103;-81
2022/12/13 05:16:47;;;;;;;9.68;7.38;;;3.80;99.90;;;;;;5079787;28;20048;-81
2022/12/13 05:19:13;;;;;;;8.05;7.25;;;3.80;99.90;;;;;;5091286;28;20064;-81
2022/12/13 05:21:39;;;;;;;7.97;7.20;;;3.80;99.90;;;;;;5096877;28;20099;-81
2022/12/13 05:24:05;;;;;;;9.65;7.07;;;3.70;99.90;;;;;;5092022;28;20071;-80
2022/12/13 05:26:31;;;;;;;7.97;7.18;;;3.70;99.90;;;;;;5095284;28;20053;-81
2022/12/13 05:28:57;;;;;;;8.60;7.80;;;3.70;99.90;;;;;;5072799;28;20059;-81
2022/12/13 05:31:24;;;;;;;8.90;7.30;;;3.70;99.90;;;;;;5096462;28;20031;-81
2022/12/13 05:33:50;;;;;;;8.32;7.30;;;3.70;99.90;;;;;;5078269;28;20028;-80
2022/12/13 05:36:16;;;;;;;8.05;7.25;;;3.70;99.90;;;;;;5097549;28;20075;-81
2022/12/13 05:38:42;;;;;;;9.38;8.07;;;3.70;99.90;;;;;;5089785;28;20526;-81
2022/12/13 05:41:18;;;;;;;8.50;7.68;;;3.60;99.90;;;;;;5097582;28;20099;-80
2022/12/13 05:43:43;;;;;;;12.77;10.93;;;3.60;99.90;;;;;;5088888;28;20047;-80
2022/12/13 05:46:13;;;;;;;16.42;10.75;;;3.80;99.90;;;;;;5097492;28;20024;-81
2022/12/13 05:48:39;;;;;;;14.68;13.05;;;3.80;99.90;;;;;;5089346;28;20431;-81
2022/12/13 05:51:05;;;;;;;12.48;10.95;;;3.90;99.90;;;;;;5076492;28;20028;-81
2022/12/13 05:53:31;;;;;;;12.68;10.55;;;3.80;99.90;;;;;;5070521;28;20086;-81
2022/12/13 05:56:01;;;;;;;11.27;10.05;;;3.80;99.90;;;;;;5097509;28;20024;-81
2022/12/13 05:58:28;;;;;;;11.60;10.40;;;3.70;99.90;;;;;;5090703;28;20028;-80
2022/12/13 06:00:53;;;;;;;10.73;9.65;;;3.70;99.90;;;;;;5079373;28;20024;-81
2022/12/13 06:03:19;;;;;;;12.25;10.75;;;3.60;99.90;;;;;;5070597;28;20054;-82
2022/12/13 06:05:45;;;;;;;10.10;9.05;;;3.50;99.90;;;;;;5078897;28;20507;-83
2022/12/13 06:08:11;;;;;;;13.50;12.10;;;3.50;99.90;;;;;;5073320;28;20028;-81
2022/12/13 06:10:37;;;;;;;12.75;11.15;;;3.50;99.90;;;;;;5075832;28;20024;-82
2022/12/13 06:13:04;;;;;;;13.07;9.77;;;3.60;99.90;;;;;;5073681;28;20023;-82
2022/12/13 06:15:30;;;;;;;12.15;10.70;;;3.50;99.90;;;;;;5095166;28;20027;-82
2022/12/13 06:17:58;;;;;;;13.57;10.98;;;3.50;99.90;;;;;;5092426;28;20084;-81
2022/12/13 06:20:24;;;;;;;12.73;11.23;;;3.60;99.90;;;;;;5079098;28;20028;-81
2022/12/13 06:22:53;;;;;;;14.48;11.10;;;3.70;99.90;;;;;;5074575;28;20078;-82
2022/12/13 06:25:19;;;;;;;13.60;11.15;;;3.70;99.90;;;;;;5076535;28;20539;-82
2022/12/13 06:27:45;;;;;;;15.55;11.57;;;3.80;99.90;;;;;;5095205;28;20021;-82
2022/12/13 06:30:11;;;;;;;16.30;11.68;;;3.90;99.90;;;;;;5077774;28;20039;-82
2022/12/13 06:32:37;;;;;;;14.60;11.93;;;4.00;99.90;;;;;;5092762;28;20028;-82
2022/12/13 06:35:04;;;;;;;13.07;11.10;;;4.20;99.90;;;;;;5076143;28;20031;-81
2022/12/13 06:37:30;;;;;;;17.35;11.88;;;4.20;99.90;;;;;;5074446;28;20028;-82
2022/12/13 06:39:55;;;;;;;18.80;13.30;;;4.30;99.90;;;;;;5092198;28;20480;-80
2022/12/13 06:42:21;;;;;;;22.85;17.05;;;4.40;99.90;;;;;;5093157;28;20036;-81
2022/12/13 06:44:50;;;;;;;18.70;14.10;;;4.50;99.90;;;;;;5084548;28;20114;-81
2022/12/13 06:47:16;;;;;;;18.52;12.77;;;4.50;99.90;;;;;;5090161;28;20024;-81
2022/12/13 06:49:42;;;;;;;16.08;13.38;;;4.40;99.90;;;;;;5074291;28;20028;-81
2022/12/13 06:52:11;;;;;;;38.28;24.70;;;4.50;99.90;;;;;;5093255;28;20087;-81
2022/12/13 06:54:37;;;;;;;202.80;110.32;;;4.50;99.90;;;;;;5075291;28;20024;-81
2022/12/13 06:57:03;;;;;;;29.75;20.33;;;4.50;99.90;;;;;;5076061;28;20042;-81
2022/12/13 06:59:28;;;;;;;247.70;154.45;;;4.50;99.90;;;;;;5091226;28;20059;-81
2022/12/13 07:01:54;;;;;;;37.38;27.65;;;4.50;99.90;;;;;;5076680;28;20024;-81
2022/12/13 07:04:20;;;;;;;13.88;12.07;;;4.50;99.90;;;;;;5090321;28;20054;-83
2022/12/13 07:06:46;;;;;;;13.57;11.57;;;4.60;99.90;;;;;;5090890;28;20563;-81
2022/12/13 07:09:11;;;;;;;516.30;288.48;;;4.50;99.90;;;;;;5088541;28;20031;-81
2022/12/13 07:11:37;;;;;;;161.85;70.18;;;4.60;99.90;;;;;;5067393;28;20030;-81
2022/12/13 07:14:03;;;;;;;124.72;55.72;;;4.60;99.90;;;;;;5079424;28;20496;-82
2022/12/13 07:16:29;;;;;;;188.82;111.47;;;4.60;99.90;;;;;;5095042;28;20028;-82
2022/12/13 07:18:59;;;;;;;49.30;41.17;;;4.50;99.90;;;;;;5088855;28;20035;-82
2022/12/13 07:21:26;;;;;;;28.30;25.13;;;4.40;99.90;;;;;;5077000;28;20024;-82
2022/12/13 07:23:53;;;;;;;30.02;23.38;;;4.40;99.90;;;;;;5088324;28;20058;-80
2022/12/13 07:26:19;;;;;;;52.03;42.47;;;4.30;99.90;;;;;;5092813;28;20016;-82
2022/12/13 07:28:45;;;;;;;33.75;27.90;;;4.30;99.90;;;;;;5089689;28;20103;-81
2022/12/13 07:31:11;;;;;;;48.50;42.58;;;4.20;99.90;;;;;;5082916;28;20035;-81
2022/12/13 07:33:38;;;;;;;36.42;30.77;;;4.10;99.90;;;;;;5066012;28;20028;-82
2022/12/13 07:36:10;;;;;;;27.70;24.70;;;4.10;99.90;;;;;;5090797;28;20633;-82
2022/12/13 07:38:36;;;;;;;129.27;111.25;;;4.10;99.90;;;;;;5089478;28;20028;-81
2022/12/13 07:41:04;;;;;;;34.67;31.05;;;4.00;99.90;;;;;;5092797;28;20055;-81
2022/12/13 07:43:30;;;;;;;27.45;22.38;;;4.00;99.90;;;;;;5087310;28;20024;-81
2022/12/13 07:46:05;;;;;;;25.73;22.02;;;4.00;99.90;;;;;;5097741;28;20020;-81
2022/12/13 07:48:32;;;;;;;17.42;15.48;;;4.10;99.90;;;;;;5071967;28;20021;-81
2022/12/13 07:51:04;;;;;;;18.20;14.20;;;4.20;99.90;;;;;;5096240;28;20933;-80
2022/12/13 07:53:30;;;;;;;17.05;14.02;;;4.30;99.90;;;;;;5091305;28;20034;-81
2022/12/13 07:55:56;;;;;;;15.90;12.98;;;4.30;99.90;;;;;;5093005;28;20133;-81
2022/12/13 07:58:22;;;;;;;17.30;13.80;;;4.40;99.90;;;;;;5089256;28;20028;-80
2022/12/13 08:00:48;;;;;;;19.77;14.18;;;4.50;99.90;;;;;;5091750;28;20032;-81
2022/12/13 08:03:14;;;;;;;17.42;13.57;;;4.50;99.90;;;;;;5062964;28;20114;-81
2022/12/13 08:05:40;;;;;;;18.23;14.90;;;4.50;99.90;;;;;;5065119;28;21443;-81
2022/12/13 08:08:09;;;;;;;15.35;13.27;;;4.60;99.90;;;;;;5071224;28;20016;-80
2022/12/13 08:10:35;;;;;;;15.30;12.43;;;4.60;99.90;;;;;;5058550;28;20050;-81
2022/12/13 08:13:02;;;;;;;16.15;13.55;;;4.60;99.90;;;;;;5090221;28;20044;-80
2022/12/13 08:15:29;;;;;;;18.63;14.05;;;4.60;99.90;;;;;;5073639;28;20437;-81
2022/12/13 08:17:55;;;;;;;14.82;13.07;;;4.70;99.90;;;;;;5075506;28;20462;-79
2022/12/13 08:20:21;;;;;;;14.70;13.02;;;4.70;99.90;;;;;;5086868;28;20046;-80
2022/12/13 08:22:57;;;;;;;22.17;14.82;;;4.80;99.90;;;;;;5074650;28;20025;-80
2022/12/13 08:25:23;;;;;;;16.65;13.23;;;4.80;99.90;;;;;;5070141;28;20048;-81
2022/12/13 08:27:49;;;;;;;17.75;14.23;;;4.80;99.90;;;;;;5071564;28;20021;-79
2022/12/13 08:30:15;;;;;;;19.63;12.52;;;4.90;99.90;;;;;;5058775;28;21348;-80
2022/12/13 08:32:41;;;;;;;15.70;13.05;;;4.90;99.90;;;;;;5054119;28;20028;-82
2022/12/13 08:35:07;;;;;;;19.10;14.55;;;5.00;99.90;;;;;;5074030;28;20473;-80
2022/12/13 08:37:33;;;;;;;17.00;12.15;;;5.00;99.90;;;;;;5074250;28;20039;-80
2022/12/13 08:39:59;;;;;;;17.10;13.10;;;5.00;99.90;;;;;;5075246;28;20085;-80
2022/12/13 08:42:25;;;;;;;22.02;16.33;;;5.10;99.90;;;;;;5074119;28;20025;-81
2022/12/13 08:44:52;;;;;;;22.25;15.52;;;5.20;99.90;;;;;;5070600;28;20481;-81
2022/12/13 08:47:20;;;;;;;24.13;17.13;;;5.20;99.90;;;;;;5072992;28;20032;-80
2022/12/13 08:49:46;;;;;;;19.38;15.30;;;5.30;99.90;;;;;;5072883;28;20103;-80
2022/12/13 08:52:11;;;;;;;18.10;13.82;;;5.40;99.90;;;;;;5073636;28;20035;-80
2022/12/13 08:54:37;;;;;;;16.23;13.80;;;5.50;99.90;;;;;;5067902;28;20020;-80
2022/12/13 08:57:03;;;;;;;15.30;12.80;;;5.50;99.90;;;;;;5074889;28;20017;-81
2022/12/13 08:59:29;;;;;;;16.20;12.70;;;5.60;99.90;;;;;;5070160;28;20032;-80
2022/12/13 09:01:55;;;;;;;20.13;13.48;;;5.60;99.90;;;;;;5072394;28;20017;-81
2022/12/13 09:04:21;;;;;;;15.48;12.40;;;5.70;99.90;;;;;;5065330;28;20024;-81
2022/12/13 09:06:46;;;;;;;16.83;12.63;;;5.80;99.90;;;;;;5076944;28;20020;-81
2022/12/13 09:09:12;;;;;;;14.43;12.50;;;5.80;99.90;;;;;;5071570;28;20032;-81
2022/12/13 09:11:39;;;;;;;17.15;13.75;;;5.90;99.90;;;;;;5049867;28;20523;-81
2022/12/13 09:14:06;;;;;;;15.90;13.07;;;5.90;99.90;;;;;;5055041;28;20082;-81
2022/12/13 09:16:35;;;;;;;17.67;13.07;;;6.00;99.90;;;;;;5072451;28;20054;-81
2022/12/13 09:19:02;;;;;;;16.40;12.65;;;6.10;99.90;;;;;;5073251;28;20404;-80
2022/12/13 09:21:28;;;;;;;14.80;12.27;;;6.20;99.90;;;;;;5069965;28;20027;-81
2022/12/13 09:23:54;;;;;;;17.60;13.18;;;6.30;99.90;;;;;;5058378;28;20719;-80
2022/12/13 09:26:20;;;;;;;13.35;11.45;;;6.40;99.90;;;;;;5064638;28;20515;-81
2022/12/13 09:28:46;;;;;;;15.05;12.23;;;6.50;99.90;;;;;;5051260;28;20642;-82
2022/12/13 09:31:17;;;;;;;13.38;11.35;;;6.50;99.90;;;;;;5046014;28;20017;-81
2022/12/13 09:33:43;;;;;;;13.48;11.43;;;6.50;99.90;;;;;;5062242;28;20262;-82
2022/12/13 09:36:16;;;;;;;12.70;10.45;;;6.50;99.90;;;;;;5073881;28;20055;-81
2022/12/13 09:38:42;;;;;;;15.05;11.75;;;6.60;99.90;;;;;;5070244;28;20083;-82
2022/12/13 09:41:20;;;;;;;14.00;11.15;;;6.70;99.90;;;;;;5076826;28;20492;-80
2022/12/13 09:43:51;;;;;;;13.57;11.50;;;6.80;99.90;;;;;;5059928;28;20111;-81
2022/12/13 09:46:33;;;;;;;12.98;11.02;;;6.90;99.90;;;;;;5044611;28;20033;-82
2022/12/13 09:49:02;;;;;;;14.35;11.55;;;7.00;99.90;;;;;;5071798;28;20031;-82
2022/12/13 09:51:31;;;;;;;15.75;14.00;;;7.10;99.90;;;;;;5074853;28;20027;-82
2022/12/13 09:53:59;;;;;;;15.23;12.07;;;7.20;99.90;;;;;;5070368;28;20025;-81
2022/12/13 09:56:25;;;;;;;15.18;12.30;;;7.20;99.90;;;;;;5074290;28;20025;-82
2022/12/13 09:58:52;;;;;;;14.13;12.32;;;7.20;99.90;;;;;;5073282;28;20085;-82
2022/12/13 10:01:19;;;;;;;14.88;10.88;;;7.30;99.90;;;;;;5075343;28;20031;-82
2022/12/13 10:03:51;;;;;;;18.23;12.57;;;7.30;99.90;;;;;;5070020;28;20036;-82
2022/12/13 10:06:20;;;;;;;12.55;10.88;;;7.40;99.90;;;;;;5072915;28;20031;-83
2022/12/13 10:08:52;;;;;;;13.20;10.90;;;7.50;99.90;;;;;;5070309;28;20039;-83
2022/12/13 10:11:20;;;;;;;16.83;11.10;;;7.50;99.90;;;;;;5058202;28;20112;-82
2022/12/13 10:14:11;;;;;;;21.33;14.10;;;7.60;99.90;;;;;;5067542;28;20024;-83
2022/12/13 10:17:08;;;;;;;24.73;13.30;;;7.80;99.90;;;;;;5072476;28;20028;-82
2022/12/13 10:19:40;;;;;;;18.80;14.05;;;7.80;99.90;;;;;;5057911;28;20047;-83
2022/12/13 10:22:15;;;;;;;21.48;13.23;;;8.00;99.90;;;;;;5064379;28;20396;-83
2022/12/13 10:25:04;;;;;;;15.73;11.70;;;8.10;99.90;;;;;;5077925;28;20194;-83
2022/12/13 10:27:44;;;;;;;17.13;12.77;;;8.10;99.90;;;;;;5090564;28;20143;-82
2022/12/13 10:30:21;;;;;;;19.25;12.15;;;8.20;99.90;;;;;;5093806;28;20020;-83
2022/12/13 10:32:51;;;;;;;18.38;11.82;;;8.30;99.90;;;;;;5091127;28;20063;-83
2022/12/13 10:35:33;;;;;;;12.77;10.63;;;8.40;99.90;;;;;;5089392;28;20035;-83
2022/12/13 10:38:09;;;;;;;15.98;9.57;;;8.50;99.90;;;;;;5068352;28;20043;-83
2022/12/13 10:40:39;;;;;;;12.13;9.25;;;8.50;99.90;;;;;;5084514;28;20063;-83
2022/12/13 10:43:26;;;;;;;15.13;9.68;;;8.50;99.90;;;;;;5089710;28;20084;-83
2022/12/13 10:45:55;;;;;;;14.35;10.90;;;8.50;99.90;;;;;;5094234;28;20515;-85
2022/12/13 10:48:24;;;;;;;13.52;9.63;;;8.50;99.90;;;;;;5087440;28;20026;-82
2022/12/13 10:51:01;;;;;;;14.40;11.27;;;8.50;99.90;;;;;;5083898;28;20028;-82
2022/12/13 10:53:55;;;;;;;16.48;11.48;;;8.50;99.90;;;;;;5070909;28;20029;-83
2022/12/13 10:56:31;;;;;;;14.27;10.73;;;8.50;99.90;;;;;;5072260;28;20039;-83
2022/12/13 10:59:16;;;;;;;12.80;10.18;;;8.60;99.90;;;;;;5084129;28;20048;-80
2022/12/13 11:01:42;;;;;;;14.82;11.60;;;8.70;99.90;;;;;;5089406;28;20020;-80
2022/12/13 11:04:28;;;;;;;13.60;11.23;;;8.80;99.90;;;;;;5081513;28;20503;-80
2022/12/13 11:06:55;;;;;;;14.48;10.77;;;8.90;99.90;;;;;;5090577;28;20020;-83
2022/12/13 11:09:32;;;;;;;15.20;11.93;;;8.90;99.90;;;;;;5087414;28;20027;-81
2022/12/13 11:12:02;;;;;;;12.88;9.50;;;8.80;99.90;;;;;;5078435;28;20016;-82
2022/12/13 11:14:34;;;;;;;9.98;8.70;;;8.80;99.90;;;;;;5088235;28;20115;-81
2022/12/13 11:17:13;;;;;;;12.02;9.98;;;8.90;99.90;;;;;;5091954;28;20027;-82
2022/12/13 11:19:44;;;;;;;15.38;11.60;;;9.00;99.90;;;;;;5086788;28;20400;-82
2022/12/13 11:22:20;;;;;;;11.73;9.93;;;9.00;99.90;;;;;;5074856;28;20020;-82
2022/12/13 11:24:50;;;;;;;10.65;9.50;;;9.10;99.90;;;;;;5091438;28;20472;-82
2022/12/13 11:27:34;;;;;;;;;;;9.00;99.90;;;;;;5096898;28;20070;-82
2022/12/13 11:30:12;;;;;;;14.32;10.00;;;9.10;99.90;;;;;;5074935;28;19910;-82
2022/12/13 11:32:56;;;;;;;12.80;10.95;;;9.30;99.90;;;;;;5096882;28;20097;-82
2022/12/13 11:35:53;;;;;;;28.27;17.02;;;9.40;99.90;;;;;;5097818;28;20115;-80
2022/12/13 11:38:38;;;;;;;26.20;15.65;;;9.50;99.90;;;;;;5093987;28;20055;-82
2022/12/13 11:41:27;;;;;;;22.30;15.20;;;9.50;99.90;;;;;;5077144;28;20590;-81
2022/12/13 11:44:08;;;;;;;39.35;25.23;;;9.60;99.90;;;;;;5064428;28;20104;-82
2022/12/13 11:46:37;;;;;;;22.00;17.88;;;9.70;99.90;;;;;;5076959;28;20182;-81
2022/12/13 11:49:16;;;;;;;13.52;10.88;;;9.70;99.90;;;;;;5078272;28;20068;-82
2022/12/13 11:52:04;;;;;;;11.18;9.75;;;9.80;99.90;;;;;;5093311;28;20505;-82
2022/12/13 11:54:49;;;;;;;13.25;11.90;;;9.80;99.90;;;;;;5070107;28;20035;-82
2022/12/13 11:57:24;;;;;;;12.05;9.98;;;9.90;99.90;;;;;;5096516;28;20024;-82
2022/12/13 12:00:00;;;;;;;15.02;10.40;;;10.00;99.90;;;;;;5095209;28;20494;-83
2022/12/13 12:02:34;;;;;;;17.90;12.88;;;10.00;99.90;;;;;;5089512;28;20063;-84
2022/12/13 12:05:26;;;;;;;15.55;10.07;;;10.00;99.90;;;;;;5074526;28;20032;-83
2022/12/13 12:08:01;;;;;;;12.30;9.90;;;10.10;99.90;;;;;;5088567;28;20020;-83
2022/12/13 12:10:41;;;;;;;12.98;9.85;;;10.00;99.90;;;;;;5067923;28;20587;-83
2022/12/13 12:13:38;;;;;;;;;;;10.10;99.90;;;;;;5063090;28;20058;-84
2022/12/13 12:16:41;;;;;;;12.70;9.50;;;10.10;99.90;;;;;;5057058;28;19969;-84
2022/12/13 12:19:22;;;;;;;19.85;13.55;;;10.10;99.90;;;;;;5075556;28;20016;-84
2022/12/13 12:22:00;;;;;;;14.73;9.93;;;10.10;99.90;;;;;;5079959;28;20042;-84
2022/12/13 12:24:32;;;;;;;31.63;18.60;;;10.00;99.90;;;;;;5076756;28;20044;-84
2022/12/13 12:27:12;;;;;;;19.23;13.80;;;10.10;99.90;;;;;;5076568;28;20024;-84
2022/12/13 12:29:54;;;;;;;51.15;30.75;;;10.00;99.90;;;;;;5095774;28;20020;-84
2022/12/13 12:32:50;;;;;;;13.65;10.55;;;10.00;99.90;;;;;;5063451;28;20051;-84
2022/12/13 12:35:55;;;;;;;15.63;10.55;;;10.00;99.90;;;;;;5089169;28;20059;-84
2022/12/13 12:38:36;;;;;;;10.27;9.18;;;9.90;99.90;;;;;;5085159;28;20051;-84
2022/12/13 12:41:23;;;;;;;13.98;9.07;;;9.90;99.90;;;;;;5087784;28;20128;-83
2022/12/13 12:43:55;;;;;;;22.58;13.65;;;9.90;99.90;;;;;;5066727;28;20118;-84
2022/12/13 12:46:42;;;;;;;16.60;12.85;;;9.90;99.90;;;;;;5062464;28;20052;-82
2022/12/13 12:49:46;;;;;;;37.60;27.77;;;9.90;99.90;;;;;;5073584;28;20020;-84
2022/12/13 12:52:26;;;;;;;15.10;11.95;;;10.00;99.90;;;;;;5080755;28;20028;-83
2022/12/13 12:55:26;;;;;;;14.95;11.00;;;10.10;99.90;;;;;;5087570;28;20046;-82
2022/12/13 12:58:06;;;;;;;18.73;11.88;;;10.10;99.90;;;;;;5088604;28;20032;-82
2022/12/13 13:01:01;;;;;;;25.63;15.38;;;10.20;99.90;;;;;;5090742;28;20030;-82
2022/12/13 13:03:30;;;;;;;39.33;24.70;;;10.30;99.90;;;;;;4988249;28;20058;-83
2022/12/13 13:06:01;;;;;;;18.65;14.35;;;10.30;99.90;;;;;;5075691;28;20581;-83
2022/12/13 13:08:43;;;;;;;24.73;15.05;;;10.40;99.90;;;;;;5090007;28;20050;-82
2022/12/13 13:11:10;;;;;;;25.60;19.20;;;10.50;99.90;;;;;;5089931;28;20012;-82